Time;durP1;ratioP1;P1;durP2;ratioP2;P2;SDS_P1;SDS_P2;PMS_P1;PMS_P2;Temp;Humidity;BMP_temperature;BMP_pressure;BME280_temperature;BME280_humidity;BME280_pressure;Samples;Min_cycle;Max_cycle;Signal;HPM_P1;HPM_P2
2020/12/06 00:01:47;;;;;;;22.40;16.57;;;1.10;99.90;;;;;;4355427;32;20153;-67
2020/12/06 00:04:19;;;;;;;23.40;16.93;;;1.10;99.90;;;;;;4354616;33;20210;-66
2020/12/06 00:06:52;;;;;;;24.17;16.43;;;1.10;99.90;;;;;;4356179;33;20164;-65
2020/12/06 00:09:20;;;;;;;23.90;16.70;;;1.00;99.90;;;;;;4357043;33;20187;-67
2020/12/06 00:11:48;;;;;;;22.97;16.67;;;1.00;99.90;;;;;;4356371;33;20157;-67
2020/12/06 00:14:17;;;;;;;23.20;17.13;;;1.00;99.90;;;;;;4357515;33;20275;-67
2020/12/06 00:16:48;;;;;;;23.83;17.10;;;1.00;99.90;;;;;;4370030;32;20171;-67
2020/12/06 00:19:14;;;;;;;30.80;18.97;;;1.00;99.90;;;;;;4393868;32;20573;-67
2020/12/06 00:21:40;;;;;;;26.00;18.13;;;1.00;99.90;;;;;;4393550;32;20159;-67
2020/12/06 00:24:07;;;;;;;27.23;17.87;;;1.00;99.90;;;;;;4404809;32;20634;-67
2020/12/06 00:26:33;;;;;;;26.47;18.60;;;0.90;99.90;;;;;;4396628;32;20171;-67
2020/12/06 00:28:59;;;;;;;24.20;18.03;;;0.90;99.90;;;;;;4392679;32;20194;-67
2020/12/06 00:31:26;;;;;;;30.00;18.90;;;1.00;99.90;;;;;;4401748;32;20231;-67
2020/12/06 00:33:53;;;;;;;27.30;18.27;;;0.90;99.90;;;;;;4400156;32;20225;-67
2020/12/06 00:36:19;;;;;;;29.27;19.20;;;0.90;99.90;;;;;;4393150;32;20155;-67
2020/12/06 00:38:46;;;;;;;29.43;19.17;;;0.90;99.90;;;;;;4400293;32;20148;-67
2020/12/06 00:41:14;;;;;;;28.20;19.30;;;0.90;99.90;;;;;;4406226;32;20152;-67
2020/12/06 00:43:40;;;;;;;26.97;18.00;;;0.90;99.90;;;;;;4404200;32;20549;-66
2020/12/06 00:46:12;;;;;;;27.60;18.23;;;0.90;99.90;;;;;;4405357;32;20226;-66
2020/12/06 00:48:43;;;;;;;28.67;19.40;;;0.90;99.90;;;;;;4398250;32;20152;-66
2020/12/06 00:51:13;;;;;;;26.10;18.13;;;0.90;99.90;;;;;;4392873;32;20623;-67
2020/12/06 00:53:43;;;;;;;27.57;19.20;;;1.00;99.90;;;;;;4395083;32;20230;-66
2020/12/06 00:56:16;;;;;;;26.80;18.67;;;1.10;99.90;;;;;;4392203;32;20219;-66
2020/12/06 00:58:45;;;;;;;27.47;18.60;;;1.00;99.90;;;;;;4395348;32;20152;-66
2020/12/06 01:01:16;;;;;;;24.10;17.93;;;1.00;99.90;;;;;;4396128;32;20262;-66
2020/12/06 01:03:45;;;;;;;27.53;19.20;;;0.90;99.90;;;;;;4391948;32;20148;-66
2020/12/06 01:06:15;;;;;;;28.20;18.97;;;0.90;99.90;;;;;;4392026;32;20205;-66
2020/12/06 01:08:47;;;;;;;25.00;17.67;;;0.90;99.90;;;;;;4391597;32;20156;-66
2020/12/06 01:11:17;;;;;;;24.97;18.43;;;1.00;99.90;;;;;;4392472;32;20610;-65
2020/12/06 01:13:48;;;;;;;26.10;18.27;;;1.00;99.90;;;;;;4406834;32;20139;-65
2020/12/06 01:16:19;;;;;;;28.50;19.23;;;1.00;99.90;;;;;;4403135;32;20230;-65
2020/12/06 01:18:48;;;;;;;24.43;18.70;;;1.00;99.90;;;;;;4400508;32;20263;-65
2020/12/06 01:21:17;;;;;;;29.77;19.40;;;1.00;99.90;;;;;;4402695;32;20220;-65
2020/12/06 01:23:43;;;;;;;32.30;20.40;;;1.00;99.90;;;;;;4406851;32;20226;-66
2020/12/06 01:26:10;;;;;;;28.77;19.20;;;1.00;99.90;;;;;;4405243;32;20222;-66
2020/12/06 01:28:37;;;;;;;33.10;20.77;;;1.00;99.90;;;;;;4407674;32;20635;-65
2020/12/06 01:31:05;;;;;;;34.80;21.53;;;1.00;99.90;;;;;;4398865;32;20226;-66
2020/12/06 01:33:37;;;;;;;29.30;17.87;;;1.00;99.90;;;;;;4405035;32;20677;-66
2020/12/06 01:36:07;;;;;;;27.27;19.23;;;1.00;99.90;;;;;;4405487;32;20143;-66
2020/12/06 01:38:42;;;;;;;29.47;19.67;;;1.10;99.90;;;;;;4398671;32;20144;-66
2020/12/06 01:41:08;;;;;;;26.43;19.57;;;1.00;99.90;;;;;;4402838;32;20257;-66
2020/12/06 01:43:40;;;;;;;29.17;21.40;;;1.00;99.90;;;;;;4400051;32;20242;-66
2020/12/06 01:46:06;;;;;;;32.17;20.00;;;1.10;99.90;;;;;;4391864;32;20147;-65
2020/12/06 01:48:33;;;;;;;29.70;20.27;;;1.00;99.90;;;;;;4394846;32;20213;-65
2020/12/06 01:50:59;;;;;;;29.77;19.90;;;1.00;99.90;;;;;;4399393;32;20219;-65
2020/12/06 01:53:25;;;;;;;33.17;21.33;;;1.00;99.90;;;;;;4401582;32;20163;-65
2020/12/06 01:55:53;;;;;;;30.83;21.17;;;1.00;99.90;;;;;;4402705;32;20186;-67
2020/12/06 01:58:26;;;;;;;30.80;20.43;;;1.00;99.90;;;;;;4404581;32;20223;-65
2020/12/06 02:00:52;;;;;;;35.07;21.07;;;1.10;99.90;;;;;;4391439;32;20589;-65
2020/12/06 02:03:19;;;;;;;31.97;20.43;;;1.10;99.90;;;;;;4392060;32;20213;-65
2020/12/06 02:05:49;;;;;;;29.90;21.10;;;1.10;99.90;;;;;;4391185;32;20170;-65
2020/12/06 02:08:16;;;;;;;29.17;19.63;;;1.10;99.90;;;;;;4391096;32;20211;-67
2020/12/06 02:10:42;;;;;;;32.00;20.20;;;1.10;99.90;;;;;;4393292;32;20187;-65
2020/12/06 02:13:09;;;;;;;32.40;21.60;;;1.30;99.90;;;;;;4398953;32;20175;-66
2020/12/06 02:15:36;;;;;;;31.93;20.57;;;1.10;99.90;;;;;;4404715;32;20223;-65
2020/12/06 02:18:02;;;;;;;34.20;21.23;;;1.10;99.90;;;;;;4398202;32;20167;-65
2020/12/06 02:20:31;;;;;;;29.07;20.30;;;1.10;99.90;;;;;;4404138;32;20562;-65
2020/12/06 02:22:59;;;;;;;31.57;21.77;;;1.10;99.90;;;;;;4396994;32;20182;-65
2020/12/06 02:25:25;;;;;;;31.93;21.27;;;1.00;99.90;;;;;;4391608;32;20178;-64
2020/12/06 02:27:51;;;;;;;31.07;21.17;;;0.90;99.90;;;;;;4391214;32;20197;-65
2020/12/06 02:30:18;;;;;;;33.87;21.47;;;1.10;99.90;;;;;;4399290;32;20223;-66
2020/12/06 02:32:50;;;;;;;32.00;21.00;;;1.10;99.90;;;;;;4391749;32;20175;-65
2020/12/06 02:35:16;;;;;;;28.77;20.23;;;1.10;99.90;;;;;;4396700;32;20187;-65
2020/12/06 02:37:43;;;;;;;28.43;20.23;;;1.10;99.90;;;;;;4405451;32;20242;-65
2020/12/06 02:40:09;;;;;;;30.77;20.63;;;1.10;99.90;;;;;;4403872;32;20223;-65
2020/12/06 02:42:36;;;;;;;31.40;20.80;;;1.10;99.90;;;;;;4400982;32;20160;-65
2020/12/06 02:45:03;;;;;;;31.93;22.00;;;1.20;99.90;;;;;;4394016;32;20215;-65
2020/12/06 02:47:29;;;;;;;32.23;21.27;;;1.10;99.90;;;;;;4404023;32;20148;-65
2020/12/06 02:49:55;;;;;;;33.43;23.07;;;1.20;99.90;;;;;;4405338;32;20651;-65
2020/12/06 02:52:21;;;;;;;34.07;22.50;;;1.20;99.90;;;;;;4402208;32;20194;-65
2020/12/06 02:54:54;;;;;;;27.77;20.43;;;1.20;99.90;;;;;;4395364;32;20185;-65
2020/12/06 02:57:21;;;;;;;31.33;21.47;;;1.20;99.90;;;;;;4390111;32;20151;-65
2020/12/06 02:59:54;;;;;;;32.23;21.23;;;1.20;99.90;;;;;;4396393;32;20183;-67
2020/12/06 03:02:21;;;;;;;32.40;20.43;;;1.20;99.90;;;;;;4390994;32;20237;-66
2020/12/06 03:04:47;;;;;;;30.80;22.03;;;1.20;99.90;;;;;;4390947;32;20171;-66
2020/12/06 03:07:14;;;;;;;30.63;20.27;;;1.20;99.90;;;;;;4390340;32;20206;-66
2020/12/06 03:09:40;;;;;;;33.43;22.03;;;1.20;99.90;;;;;;4392269;32;21926;-66
2020/12/06 03:12:08;;;;;;;32.07;21.27;;;1.20;99.90;;;;;;4402497;32;20159;-66
2020/12/06 03:14:34;;;;;;;31.47;21.63;;;1.20;99.90;;;;;;4403979;32;20309;-65
2020/12/06 03:17:01;;;;;;;32.23;21.37;;;1.30;99.90;;;;;;4399822;32;20219;-66
2020/12/06 03:19:27;;;;;;;33.47;22.70;;;1.20;99.90;;;;;;4404330;32;20155;-66
2020/12/06 03:21:53;;;;;;;35.27;24.17;;;1.10;99.90;;;;;;4390856;32;20488;-66
2020/12/06 03:24:20;;;;;;;35.53;24.87;;;1.20;99.90;;;;;;4392894;32;20226;-65
2020/12/06 03:26:46;;;;;;;36.10;25.47;;;1.10;99.90;;;;;;4395490;32;20516;-65
2020/12/06 03:29:13;;;;;;;43.07;28.70;;;1.20;99.90;;;;;;4404975;32;20155;-64
2020/12/06 03:31:43;;;;;;;38.23;26.83;;;1.10;99.90;;;;;;4395979;32;20153;-66
2020/12/06 03:34:10;;;;;;;45.57;27.43;;;1.10;99.90;;;;;;4398838;32;20147;-66
2020/12/06 03:36:36;;;;;;;44.43;30.23;;;1.10;99.90;;;;;;4392501;32;20186;-66
2020/12/06 03:39:03;;;;;;;43.33;30.10;;;1.10;99.90;;;;;;4391145;32;20642;-66
2020/12/06 03:41:32;;;;;;;39.87;28.43;;;1.10;99.90;;;;;;4399881;32;20178;-66
2020/12/06 03:43:59;;;;;;;39.60;26.20;;;1.10;99.90;;;;;;4396151;32;20563;-66
2020/12/06 03:46:26;;;;;;;37.03;26.17;;;1.10;99.90;;;;;;4392862;32;20174;-66
2020/12/06 03:48:52;;;;;;;39.57;27.90;;;1.10;99.90;;;;;;4405084;32;20213;-66
2020/12/06 03:51:22;;;;;;;41.27;28.50;;;1.10;99.90;;;;;;4403243;32;20167;-67
2020/12/06 03:54:03;;;;;;;36.70;26.70;;;1.10;99.90;;;;;;4402365;32;20162;-66
2020/12/06 03:56:29;;;;;;;37.40;25.73;;;1.10;99.90;;;;;;4392210;32;20557;-66
2020/12/06 03:58:58;;;;;;;39.67;25.07;;;1.10;99.90;;;;;;4404728;32;20144;-65
2020/12/06 04:01:28;;;;;;;36.37;23.03;;;1.00;99.90;;;;;;4396131;32;20631;-65
2020/12/06 04:03:54;;;;;;;36.47;24.43;;;1.00;99.90;;;;;;4398821;32;20193;-65
2020/12/06 04:06:20;;;;;;;35.90;22.43;;;1.00;99.90;;;;;;4398288;32;20659;-65
2020/12/06 04:08:49;;;;;;;33.37;22.67;;;1.00;99.90;;;;;;4403449;32;20163;-65
2020/12/06 04:11:20;;;;;;;35.33;22.20;;;1.10;99.90;;;;;;4404785;32;20587;-65
2020/12/06 04:13:47;;;;;;;33.70;23.67;;;1.10;99.90;;;;;;4404865;32;20571;-65
2020/12/06 04:16:16;;;;;;;36.00;23.30;;;1.00;99.90;;;;;;4399480;32;20215;-65
2020/12/06 04:18:43;;;;;;;35.70;24.33;;;1.00;99.90;;;;;;4399704;32;20192;-65
2020/12/06 04:21:14;;;;;;;27.70;20.13;;;1.10;99.90;;;;;;4402975;32;20463;-65
2020/12/06 04:23:43;;;;;;;34.93;22.43;;;1.10;99.90;;;;;;4400061;32;20298;-65
2020/12/06 04:26:15;;;;;;;32.87;22.10;;;1.00;99.90;;;;;;4393161;32;20182;-65
2020/12/06 04:28:41;;;;;;;31.93;20.83;;;1.00;99.90;;;;;;4404076;32;20212;-65
2020/12/06 04:31:07;;;;;;;34.03;22.63;;;1.10;99.90;;;;;;4390095;32;20182;-65
2020/12/06 04:33:34;;;;;;;33.70;21.63;;;1.10;99.90;;;;;;4401490;32;20167;-65
2020/12/06 04:36:01;;;;;;;38.27;23.03;;;1.10;99.90;;;;;;4395618;32;20215;-64
2020/12/06 04:38:27;;;;;;;32.67;21.80;;;1.10;99.90;;;;;;4404296;32;20582;-65
2020/12/06 04:40:54;;;;;;;34.40;22.90;;;1.10;99.90;;;;;;4402937;32;20231;-65
2020/12/06 04:43:24;;;;;;;32.23;22.33;;;1.10;99.90;;;;;;4403971;32;20163;-65
2020/12/06 04:45:53;;;;;;;31.10;21.60;;;1.10;99.90;;;;;;4397896;32;20222;-65
2020/12/06 04:48:27;;;;;;;35.87;23.40;;;1.10;99.90;;;;;;4390349;32;20231;-65
2020/12/06 04:50:55;;;;;;;31.40;21.47;;;1.20;99.90;;;;;;4401936;32;20171;-65
2020/12/06 04:53:28;;;;;;;37.57;22.87;;;1.20;99.90;;;;;;4403887;32;20154;-65
2020/12/06 04:55:56;;;;;;;30.63;22.13;;;1.20;99.90;;;;;;4398236;32;20240;-65
2020/12/06 04:58:26;;;;;;;31.77;22.13;;;1.30;99.90;;;;;;4389585;32;20222;-65
2020/12/06 05:00:52;;;;;;;34.87;22.73;;;1.30;99.90;;;;;;4392217;32;20179;-65
2020/12/06 05:03:22;;;;;;;32.47;22.60;;;1.30;99.90;;;;;;4403922;32;20575;-65
2020/12/06 05:05:50;;;;;;;34.97;22.87;;;1.20;99.90;;;;;;4405267;32;20190;-65
2020/12/06 05:08:20;;;;;;;31.53;22.37;;;1.30;99.90;;;;;;4399429;32;20198;-65
2020/12/06 05:10:48;;;;;;;29.93;20.63;;;1.40;99.90;;;;;;4405810;32;20163;-66
2020/12/06 05:13:16;;;;;;;29.97;20.70;;;1.40;99.90;;;;;;4407029;32;20148;-66
2020/12/06 05:15:43;;;;;;;32.23;21.97;;;1.40;99.90;;;;;;4404876;32;20148;-66
2020/12/06 05:18:10;;;;;;;29.30;21.27;;;1.40;99.90;;;;;;4400496;32;20185;-66
2020/12/06 05:20:39;;;;;;;32.10;20.90;;;1.40;99.90;;;;;;4393120;32;20160;-66
2020/12/06 05:23:05;;;;;;;28.07;20.70;;;1.40;99.90;;;;;;4392442;32;20194;-66
2020/12/06 05:25:36;;;;;;;33.40;23.07;;;1.40;99.90;;;;;;4398170;32;20218;-66
2020/12/06 05:28:07;;;;;;;31.47;21.50;;;1.40;99.90;;;;;;4400539;32;20194;-66
2020/12/06 05:30:45;;;;;;;31.50;21.97;;;1.40;99.90;;;;;;4400586;32;20211;-65
2020/12/06 05:33:11;;;;;;;32.67;22.20;;;1.40;99.90;;;;;;4407028;32;20579;-66
2020/12/06 05:35:41;;;;;;;30.87;21.73;;;1.40;99.90;;;;;;4399455;32;20237;-65
2020/12/06 05:38:08;;;;;;;28.70;21.23;;;1.40;99.90;;;;;;4392311;32;20235;-65
2020/12/06 05:40:56;;;;;;;31.23;21.80;;;1.40;99.90;;;;;;4399910;32;20170;-65
2020/12/06 05:43:28;;;;;;;32.13;22.67;;;1.40;99.90;;;;;;4404686;32;20258;-65
2020/12/06 05:46:13;;;;;;;31.03;22.20;;;1.40;99.90;;;;;;4391459;32;20140;-65
2020/12/06 05:48:41;;;;;;;28.40;20.43;;;1.30;99.90;;;;;;4394080;32;20211;-65
2020/12/06 05:51:19;;;;;;;30.70;21.80;;;1.30;99.90;;;;;;4404223;32;20160;-65
2020/12/06 05:53:47;;;;;;;34.27;22.73;;;1.30;99.90;;;;;;4397881;32;20468;-65
2020/12/06 05:56:23;;;;;;;32.67;22.10;;;1.30;99.90;;;;;;4391304;32;20191;-65
2020/12/06 05:58:51;;;;;;;31.93;21.77;;;1.30;99.90;;;;;;4392200;32;20144;-65
2020/12/06 06:01:21;;;;;;;28.43;20.23;;;1.30;99.90;;;;;;4391946;32;20155;-66
2020/12/06 06:03:52;;;;;;;34.03;21.90;;;1.30;99.90;;;;;;4397139;32;20194;-66
2020/12/06 06:06:22;;;;;;;29.30;21.00;;;1.30;99.90;;;;;;4405595;32;20483;-66
2020/12/06 06:08:50;;;;;;;32.87;22.30;;;1.30;99.90;;;;;;4403095;32;20227;-65
2020/12/06 06:11:24;;;;;;;31.43;22.33;;;1.20;99.90;;;;;;4391811;32;20493;-66
2020/12/06 06:13:58;;;;;;;29.10;20.23;;;1.30;99.90;;;;;;4393359;32;20139;-66
2020/12/06 06:16:25;;;;;;;32.13;21.57;;;1.20;99.90;;;;;;4401345;32;20184;-65
2020/12/06 06:18:53;;;;;;;30.43;21.37;;;1.30;99.90;;;;;;4395381;32;20174;-66
2020/12/06 06:21:22;;;;;;;30.90;22.07;;;1.30;99.90;;;;;;4404750;32;20159;-67
2020/12/06 06:23:51;;;;;;;33.53;22.63;;;1.20;99.90;;;;;;4379252;32;20164;-68
2020/12/06 06:26:35;;;;;;;36.93;24.37;;;1.20;99.90;;;;;;4391372;32;20167;-67
2020/12/06 06:29:10;;;;;;;34.40;23.83;;;1.20;99.90;;;;;;4400077;32;20178;-68
2020/12/06 06:31:36;;;;;;;30.93;21.37;;;1.20;99.90;;;;;;4396320;32;20167;-65
2020/12/06 06:34:06;;;;;;;33.70;21.07;;;1.20;99.90;;;;;;4392822;32;20176;-66
2020/12/06 06:36:34;;;;;;;32.30;22.93;;;1.20;99.90;;;;;;4398422;32;20187;-68
2020/12/06 06:39:03;;;;;;;30.00;21.27;;;1.20;99.90;;;;;;4398281;32;20219;-68
2020/12/06 06:41:33;;;;;;;35.57;24.40;;;1.20;99.90;;;;;;4391831;32;20167;-67
2020/12/06 06:44:06;;;;;;;35.20;23.73;;;1.20;99.90;;;;;;4405454;32;20143;-66
2020/12/06 06:46:34;;;;;;;36.07;24.20;;;1.20;99.90;;;;;;4400638;32;20211;-66
2020/12/06 06:49:11;;;;;;;31.47;22.93;;;1.20;99.90;;;;;;4398152;32;20253;-65
2020/12/06 06:51:50;;;;;;;32.80;23.83;;;1.30;99.90;;;;;;4403412;32;20586;-65
2020/12/06 06:54:27;;;;;;;33.10;23.87;;;1.30;99.90;;;;;;4393474;32;20246;-67
2020/12/06 06:56:58;;;;;;;32.10;22.87;;;1.20;99.90;;;;;;4390922;32;20187;-66
2020/12/06 06:59:49;;;;;;;31.83;21.53;;;1.20;99.90;;;;;;4402935;32;20177;-65
2020/12/06 07:02:28;;;;;;;30.13;22.33;;;1.20;99.90;;;;;;4396476;32;20227;-65
2020/12/06 07:04:56;;;;;;;32.40;21.63;;;1.20;99.90;;;;;;4399181;32;20234;-65
2020/12/06 07:07:37;;;;;;;32.00;22.57;;;1.30;99.90;;;;;;4396238;32;20289;-66
2020/12/06 07:10:04;;;;;;;30.47;22.00;;;1.30;99.90;;;;;;4396530;32;20175;-66
2020/12/06 07:12:54;;;;;;;34.00;22.23;;;1.30;99.90;;;;;;4395145;32;20219;-66
2020/12/06 07:15:22;;;;;;;31.73;22.00;;;1.40;99.90;;;;;;4394804;32;20194;-65
2020/12/06 07:17:49;;;;;;;30.37;21.60;;;1.30;99.90;;;;;;4395040;32;20144;-65
2020/12/06 07:20:16;;;;;;;30.07;23.13;;;1.40;99.90;;;;;;4397510;32;20586;-66
2020/12/06 07:22:44;;;;;;;31.17;23.07;;;1.30;99.90;;;;;;4396383;32;20258;-65
2020/12/06 07:25:12;;;;;;;32.20;23.10;;;1.40;99.90;;;;;;4397896;32;20206;-66
2020/12/06 07:27:39;;;;;;;32.67;22.10;;;1.50;99.90;;;;;;4393599;32;20144;-65
2020/12/06 07:30:07;;;;;;;32.77;22.73;;;1.50;99.90;;;;;;4395373;32;20170;-65
2020/12/06 07:32:43;;;;;;;31.47;21.97;;;1.60;99.90;;;;;;4392919;32;20238;-65
2020/12/06 07:35:11;;;;;;;31.87;22.17;;;1.70;99.90;;;;;;4395968;32;20572;-66
2020/12/06 07:37:38;;;;;;;30.17;21.83;;;1.60;99.90;;;;;;4396123;32;20227;-66
2020/12/06 07:40:06;;;;;;;35.67;22.40;;;1.60;99.90;;;;;;4393399;32;20171;-66
2020/12/06 07:42:33;;;;;;;32.57;23.00;;;1.60;99.90;;;;;;4397834;32;20270;-65
2020/12/06 07:45:07;;;;;;;31.97;23.73;;;1.60;99.90;;;;;;4392378;32;20161;-66
2020/12/06 07:47:35;;;;;;;30.13;22.73;;;1.60;99.90;;;;;;4392985;32;20477;-66
2020/12/06 07:50:07;;;;;;;34.00;24.33;;;1.60;99.90;;;;;;4390809;32;20220;-66
2020/12/06 07:52:35;;;;;;;30.70;23.03;;;1.60;99.90;;;;;;4394435;32;20176;-66
2020/12/06 07:55:15;;;;;;;;;;;;;;;;;;;;;
2020/12/06 07:57:52;;;;;;;29.53;22.53;;;1.50;99.90;;;;;;4395678;32;20144;-66
2020/12/06 08:00:20;;;;;;;33.90;23.17;;;1.60;99.90;;;;;;4395129;32;20190;-65
2020/12/06 08:02:50;;;;;;;36.67;24.43;;;1.70;99.90;;;;;;4397294;32;20290;-66
2020/12/06 08:05:22;;;;;;;35.57;25.17;;;1.60;99.90;;;;;;4396336;32;20140;-66
2020/12/06 08:07:55;;;;;;;36.90;25.43;;;1.70;99.90;;;;;;4394406;32;20227;-65
2020/12/06 08:10:25;;;;;;;31.20;23.57;;;1.80;99.90;;;;;;4395374;32;20156;-66
2020/12/06 08:12:56;;;;;;;31.43;22.53;;;1.80;99.90;;;;;;4393700;32;20193;-66
2020/12/06 08:15:24;;;;;;;33.43;23.97;;;1.90;99.90;;;;;;4393823;32;20213;-66
2020/12/06 08:17:54;;;;;;;30.67;21.40;;;1.90;99.90;;;;;;4391629;32;20156;-66
2020/12/06 08:20:28;;;;;;;32.73;23.17;;;1.80;99.90;;;;;;4393715;32;20239;-65
2020/12/06 08:22:56;;;;;;;31.43;23.20;;;1.80;99.90;;;;;;4394088;32;20527;-65
2020/12/06 08:25:25;;;;;;;31.77;22.97;;;1.90;99.90;;;;;;4394480;32;20233;-64
2020/12/06 08:27:56;;;;;;;35.80;24.50;;;1.90;99.90;;;;;;4392254;32;20144;-66
2020/12/06 08:30:25;;;;;;;34.03;24.53;;;1.80;99.90;;;;;;4392944;32;20152;-66
2020/12/06 08:32:55;;;;;;;39.17;26.07;;;1.80;99.90;;;;;;4393857;32;20140;-65
2020/12/06 08:35:39;;;;;;;34.90;24.23;;;1.80;99.90;;;;;;4389767;32;20628;-65
2020/12/06 08:38:20;;;;;;;34.60;23.33;;;1.90;99.90;;;;;;4393335;32;20190;-66
2020/12/06 08:41:08;;;;;;;37.03;24.57;;;2.00;99.90;;;;;;4392344;32;20286;-67
2020/12/06 08:43:46;;;;;;;37.93;24.70;;;2.00;99.90;;;;;;4396185;32;20537;-65
2020/12/06 08:46:18;;;;;;;34.10;23.27;;;2.00;99.90;;;;;;4394194;32;20579;-65
2020/12/06 08:48:59;;;;;;;37.60;23.73;;;2.00;99.90;;;;;;4395949;32;20160;-65
2020/12/06 08:51:31;;;;;;;32.93;24.73;;;2.10;99.90;;;;;;4395063;32;20589;-67
2020/12/06 08:54:02;;;;;;;38.30;25.27;;;2.10;99.90;;;;;;4393662;32;20144;-66
2020/12/06 08:56:30;;;;;;;32.93;23.50;;;2.10;99.90;;;;;;4396524;32;20135;-66
2020/12/06 08:59:07;;;;;;;30.60;22.27;;;2.10;99.90;;;;;;4392637;32;20274;-65
2020/12/06 09:01:47;;;;;;;35.87;23.80;;;2.10;99.90;;;;;;4393178;32;20159;-66
2020/12/06 09:04:14;;;;;;;33.63;23.83;;;2.10;99.90;;;;;;4395463;32;20221;-66
2020/12/06 09:06:41;;;;;;;37.30;24.13;;;2.00;99.90;;;;;;4399860;32;20190;-64
2020/12/06 09:09:13;;;;;;;35.03;25.37;;;2.00;99.90;;;;;;4390170;32;20185;-64
2020/12/06 09:11:40;;;;;;;35.97;24.90;;;2.00;99.90;;;;;;4398167;32;20149;-66
2020/12/06 09:14:07;;;;;;;38.37;25.33;;;1.90;99.90;;;;;;4397413;32;20155;-66
2020/12/06 09:16:33;;;;;;;37.23;24.87;;;2.00;99.90;;;;;;4395423;32;20261;-65
2020/12/06 09:19:01;;;;;;;36.20;25.63;;;2.00;99.90;;;;;;4396622;32;20183;-65
2020/12/06 09:21:32;;;;;;;37.63;24.27;;;2.00;99.90;;;;;;4395730;32;20216;-65
2020/12/06 09:24:02;;;;;;;38.80;26.70;;;2.10;99.90;;;;;;4390821;32;20227;-66
2020/12/06 09:26:30;;;;;;;36.20;25.37;;;2.30;99.90;;;;;;4397416;32;20179;-66
2020/12/06 09:28:57;;;;;;;35.90;25.53;;;2.40;99.90;;;;;;4397150;32;21626;-68
2020/12/06 09:31:26;;;;;;;35.90;25.30;;;2.50;99.90;;;;;;4394721;32;20176;-67
2020/12/06 09:33:59;;;;;;;37.87;25.40;;;2.50;99.90;;;;;;4397725;32;20165;-65
2020/12/06 09:36:36;;;;;;;34.87;24.53;;;2.70;99.90;;;;;;4397912;32;20647;-66
2020/12/06 09:39:03;;;;;;;35.03;22.60;;;2.70;99.90;;;;;;4397123;32;20144;-65
2020/12/06 09:41:29;;;;;;;33.77;23.40;;;2.70;99.90;;;;;;4390813;32;20295;-65
2020/12/06 09:43:58;;;;;;;32.57;23.30;;;2.80;99.90;;;;;;4398708;32;20705;-65
2020/12/06 09:46:24;;;;;;;37.33;24.30;;;2.90;99.90;;;;;;4392343;32;20186;-66
2020/12/06 09:49:01;;;;;;;33.67;24.70;;;3.00;99.90;;;;;;4398786;32;20186;-65
2020/12/06 09:51:27;;;;;;;32.20;23.23;;;3.00;99.90;;;;;;4396256;32;20710;-67
2020/12/06 09:53:53;;;;;;;32.97;22.67;;;3.00;99.90;;;;;;4392646;32;20224;-65
2020/12/06 09:56:29;;;;;;;32.33;23.00;;;3.00;99.90;;;;;;4393088;32;20190;-63
2020/12/06 09:58:56;;;;;;;33.27;23.13;;;3.00;99.90;;;;;;4395935;32;20242;-64
2020/12/06 10:01:25;;;;;;;35.27;23.07;;;3.00;99.90;;;;;;4398758;32;20644;-64
2020/12/06 10:03:54;;;;;;;33.50;23.30;;;3.00;99.90;;;;;;4399071;32;20186;-64
2020/12/06 10:06:26;;;;;;;33.63;23.23;;;3.00;99.90;;;;;;4395332;32;20231;-66
2020/12/06 10:08:58;;;;;;;28.43;21.37;;;3.00;99.90;;;;;;4397678;32;20147;-63
2020/12/06 10:11:26;;;;;;;33.77;22.63;;;3.10;99.90;;;;;;4400585;32;20174;-65
2020/12/06 10:13:52;;;;;;;31.90;23.10;;;3.20;99.90;;;;;;4400240;32;20156;-64
2020/12/06 10:16:19;;;;;;;35.97;24.33;;;3.20;99.90;;;;;;4393678;32;20179;-63
2020/12/06 10:18:48;;;;;;;32.83;23.40;;;3.20;99.90;;;;;;4396143;32;20545;-66
2020/12/06 10:21:15;;;;;;;31.80;22.47;;;3.10;99.90;;;;;;4392637;32;20176;-65
2020/12/06 10:23:42;;;;;;;34.97;23.33;;;3.10;99.90;;;;;;4392413;32;20209;-66
2020/12/06 10:26:09;;;;;;;35.83;24.40;;;3.10;99.90;;;;;;4398909;32;20235;-65
2020/12/06 10:28:39;;;;;;;33.17;23.47;;;3.30;99.90;;;;;;4398885;32;20218;-65
2020/12/06 10:31:07;;;;;;;32.13;22.83;;;3.30;99.90;;;;;;4405551;32;20148;-64
2020/12/06 10:33:38;;;;;;;33.43;22.20;;;3.40;99.90;;;;;;4400978;32;20223;-65
2020/12/06 10:36:06;;;;;;;28.53;21.57;;;3.50;99.90;;;;;;4399891;32;20149;-65
2020/12/06 10:38:33;;;;;;;33.43;23.23;;;3.60;99.90;;;;;;4393579;32;20192;-64
2020/12/06 10:40:59;;;;;;;31.53;22.60;;;3.50;99.90;;;;;;4395250;32;20144;-64
2020/12/06 10:43:33;;;;;;;30.00;22.10;;;3.60;99.90;;;;;;4397109;32;20509;-64
2020/12/06 10:46:00;;;;;;;30.13;21.73;;;3.70;99.90;;;;;;4391149;32;20180;-65
2020/12/06 10:48:29;;;;;;;33.70;23.37;;;3.60;99.90;;;;;;4394082;32;20195;-64
2020/12/06 10:50:56;;;;;;;33.67;22.57;;;3.50;99.90;;;;;;4396893;32;20232;-64
2020/12/06 10:53:22;;;;;;;34.53;24.30;;;3.50;99.90;;;;;;4393688;32;20243;-66
2020/12/06 10:55:50;;;;;;;32.17;22.10;;;3.60;99.90;;;;;;4398879;32;20224;-65
2020/12/06 10:58:17;;;;;;;31.37;22.93;;;3.80;99.90;;;;;;4394643;32;20156;-66
2020/12/06 11:00:43;;;;;;;32.40;23.40;;;3.80;99.90;;;;;;4393944;32;20132;-65
2020/12/06 11:03:14;;;;;;;33.30;22.83;;;3.90;99.90;;;;;;4392389;32;20175;-65
2020/12/06 11:05:43;;;;;;;34.20;22.60;;;4.00;99.90;;;;;;4396760;32;20566;-65
2020/12/06 11:08:25;;;;;;;34.73;23.00;;;4.00;99.90;;;;;;4398867;32;20233;-66
2020/12/06 11:10:57;;;;;;;33.00;23.10;;;3.80;99.90;;;;;;4393905;32;20152;-66
2020/12/06 11:13:23;;;;;;;33.40;24.10;;;3.80;99.90;;;;;;4395200;32;20218;-66
2020/12/06 11:15:49;;;;;;;35.50;23.87;;;3.60;99.90;;;;;;4396140;32;20294;-66
2020/12/06 11:18:17;;;;;;;34.70;22.63;;;3.60;99.90;;;;;;4393731;32;20188;-65
2020/12/06 11:20:43;;;;;;;36.17;24.77;;;3.70;99.90;;;;;;4394400;32;20218;-65
2020/12/06 11:23:09;;;;;;;30.43;23.00;;;3.70;99.90;;;;;;4396090;32;20349;-65
2020/12/06 11:25:37;;;;;;;32.60;22.60;;;3.80;99.90;;;;;;4394146;32;20247;-65
2020/12/06 11:28:03;;;;;;;35.20;24.37;;;3.90;99.90;;;;;;4393776;32;20184;-65
2020/12/06 11:30:30;;;;;;;30.90;22.63;;;4.00;99.90;;;;;;4393888;32;20204;-65
2020/12/06 11:33:01;;;;;;;36.93;25.20;;;4.10;99.90;;;;;;4396570;32;20187;-64
2020/12/06 11:35:28;;;;;;;34.00;22.07;;;3.90;99.90;;;;;;4392620;32;20245;-65
2020/12/06 11:37:55;;;;;;;30.93;22.70;;;4.00;99.90;;;;;;4394430;32;20148;-67
2020/12/06 11:40:23;;;;;;;33.50;23.43;;;4.10;99.90;;;;;;4395121;32;20258;-66
2020/12/06 11:42:49;;;;;;;31.53;22.67;;;4.20;99.90;;;;;;4396138;32;20207;-65
2020/12/06 11:45:19;;;;;;;32.27;22.93;;;4.30;99.90;;;;;;4397351;32;20159;-64
2020/12/06 11:47:45;;;;;;;35.60;22.73;;;4.30;99.90;;;;;;4394077;32;20183;-67
2020/12/06 11:50:14;;;;;;;32.00;21.93;;;4.30;99.90;;;;;;4394096;32;20490;-65
2020/12/06 11:52:43;;;;;;;32.77;22.53;;;4.30;99.90;;;;;;4388814;32;20159;-66
2020/12/06 11:55:10;;;;;;;32.37;22.93;;;4.30;99.90;;;;;;4394446;32;20337;-65
2020/12/06 11:57:37;;;;;;;33.57;23.10;;;4.40;99.90;;;;;;4391914;32;20596;-66
2020/12/06 12:00:05;;;;;;;33.60;22.03;;;4.40;99.90;;;;;;4391036;32;20671;-66
2020/12/06 12:02:31;;;;;;;33.83;23.57;;;4.40;99.90;;;;;;4392922;32;20261;-66
2020/12/06 12:05:00;;;;;;;34.83;24.03;;;4.60;99.90;;;;;;4392476;32;20218;-66
2020/12/06 12:07:29;;;;;;;33.43;23.30;;;4.50;99.90;;;;;;4391670;32;20176;-66
2020/12/06 12:09:58;;;;;;;35.33;24.03;;;4.50;99.90;;;;;;4394676;32;20140;-65
2020/12/06 12:12:27;;;;;;;35.30;22.57;;;4.40;99.90;;;;;;4394025;32;20178;-65
2020/12/06 12:14:54;;;;;;;31.37;22.20;;;4.50;99.90;;;;;;4394297;32;20533;-67
2020/12/06 12:17:21;;;;;;;32.23;23.90;;;4.40;99.90;;;;;;4393243;32;20566;-67
2020/12/06 12:19:49;;;;;;;31.90;22.97;;;4.50;99.90;;;;;;4396662;32;20601;-66
2020/12/06 12:22:16;;;;;;;33.90;23.33;;;4.60;99.90;;;;;;4391918;32;20171;-65
2020/12/06 12:24:45;;;;;;;33.03;23.70;;;4.60;99.90;;;;;;4394797;32;20166;-65
2020/12/06 12:27:27;;;;;;;33.00;22.83;;;4.70;99.90;;;;;;4394461;32;20532;-65
2020/12/06 12:30:01;;;;;;;31.73;22.97;;;4.70;99.90;;;;;;4394479;32;20191;-67
2020/12/06 12:32:29;;;;;;;32.70;23.23;;;4.70;99.90;;;;;;4394866;32;20164;-65
2020/12/06 12:34:55;;;;;;;34.47;24.70;;;4.70;99.90;;;;;;4394059;32;20492;-68
2020/12/06 12:37:23;;;;;;;33.67;23.63;;;4.70;99.90;;;;;;4392676;32;20368;-66
2020/12/06 12:39:50;;;;;;;33.80;23.23;;;4.70;99.90;;;;;;4393057;32;20175;-65
2020/12/06 12:42:17;;;;;;;33.33;23.00;;;4.80;99.90;;;;;;4394577;32;20203;-65
2020/12/06 12:44:43;;;;;;;33.37;22.87;;;4.60;99.90;;;;;;4390132;32;20190;-67
2020/12/06 12:47:19;;;;;;;34.20;23.60;;;4.50;99.90;;;;;;4392626;32;20162;-66
2020/12/06 12:49:45;;;;;;;32.37;23.33;;;4.50;99.90;;;;;;4397566;32;20171;-66